createdAt,value
2018-01-11T00:01:46.838Z,26.50
2018-01-11T00:04:14.344Z,26.83
2018-01-11T00:06:41.857Z,25.90
2018-01-11T00:09:09.378Z,25.77
2018-01-11T00:11:36.867Z,26.97
2018-01-11T00:14:05.119Z,27.00
2018-01-11T00:16:32.638Z,27.07
2018-01-11T00:19:00.178Z,26.53
2018-01-11T00:21:28.434Z,26.47
2018-01-11T00:23:55.958Z,31.03
2018-01-11T00:26:23.437Z,32.60
2018-01-11T00:28:50.923Z,32.13
2018-01-11T00:31:18.434Z,26.17
2018-01-11T00:33:45.931Z,26.23
2018-01-11T00:36:13.448Z,25.83
2018-01-11T00:38:40.947Z,27.53
2018-01-11T00:41:08.461Z,24.90
2018-01-11T00:43:36.766Z,27.90
2018-01-11T00:46:04.253Z,29.43
2018-01-11T00:48:31.750Z,29.13
2018-01-11T00:50:59.282Z,29.07
2018-01-11T00:53:26.778Z,30.87
2018-01-11T00:55:54.266Z,35.70
2018-01-11T00:58:21.797Z,36.17
2018-01-11T01:00:49.289Z,34.77
2018-01-11T01:03:17.544Z,36.57
2018-01-11T01:05:45.067Z,33.40
2018-01-11T01:08:12.566Z,34.93
2018-01-11T01:10:40.050Z,34.43
2018-01-11T01:13:08.334Z,36.20
2018-01-11T01:15:36.628Z,37.27
2018-01-11T01:18:04.130Z,33.33
2018-01-11T01:20:31.670Z,33.07
2018-01-11T01:22:59.211Z,32.80
2018-01-11T01:25:27.489Z,32.13
2018-01-11T01:27:55.774Z,31.97
2018-01-11T01:30:23.438Z,33.03
2018-01-11T01:32:51.686Z,32.93
2018-01-11T01:35:19.174Z,32.37
2018-01-11T01:37:47.475Z,34.30
2018-01-11T01:40:14.970Z,33.20
2018-01-11T01:42:42.459Z,32.57
2018-01-11T01:45:09.973Z,31.30
2018-01-11T01:47:37.486Z,32.87
2018-01-11T01:50:05.016Z,34.67
2018-01-11T01:52:32.562Z,33.83
2018-01-11T01:55:00.094Z,32.57
2018-01-11T01:57:28.356Z,32.17
2018-01-11T01:59:55.888Z,32.77
2018-01-11T02:02:23.375Z,31.83
2018-01-11T02:04:50.869Z,32.57
2018-01-11T02:07:19.149Z,34.00
2018-01-11T02:09:47.401Z,32.30
2018-01-11T02:12:14.927Z,31.20
2018-01-11T02:14:42.421Z,31.83
2018-01-11T02:17:09.934Z,33.93
2018-01-11T02:19:37.409Z,33.97
2018-01-11T02:22:04.938Z,37.20
2018-01-11T02:24:33.191Z,38.13
2018-01-11T02:27:00.674Z,38.40
2018-01-11T02:29:28.188Z,40.17
2018-01-11T02:31:55.711Z,41.00
2018-01-11T02:34:23.976Z,39.93
2018-01-11T02:36:51.467Z,39.30
2018-01-11T02:39:19.751Z,40.70
2018-01-11T02:41:47.238Z,38.47
2018-01-11T02:44:14.754Z,38.20
2018-01-11T02:46:42.282Z,37.27
2018-01-11T02:49:09.777Z,38.10
2018-01-11T02:51:38.069Z,38.57
2018-01-11T02:54:06.319Z,38.33
2018-01-11T02:56:33.848Z,35.87
2018-01-11T02:59:01.345Z,37.87
2018-01-11T03:01:28.845Z,36.60
2018-01-11T03:03:57.136Z,38.43
2018-01-11T03:06:24.614Z,37.30
2018-01-11T03:08:52.102Z,39.63
2018-01-11T03:11:19.642Z,38.90
2018-01-11T03:13:47.125Z,36.90
2018-01-11T03:16:14.610Z,36.97
2018-01-11T03:18:42.130Z,36.20
2018-01-11T03:21:09.666Z,37.83
2018-01-11T03:23:37.943Z,39.90
2018-01-11T03:26:06.191Z,39.67
2018-01-11T03:28:33.801Z,37.87
2018-01-11T03:31:02.055Z,37.87
2018-01-11T03:33:29.551Z,39.70
2018-01-11T03:35:57.082Z,40.27
2018-01-11T03:38:24.566Z,41.90
2018-01-11T03:40:52.824Z,41.60
2018-01-11T03:43:20.345Z,42.23
2018-01-11T03:45:47.869Z,41.20
2018-01-11T03:48:16.172Z,40.43
2018-01-11T03:50:43.697Z,37.97
2018-01-11T03:53:11.216Z,38.87
2018-01-11T03:55:38.705Z,39.87
2018-01-11T03:58:06.229Z,37.57
2018-01-11T04:00:33.759Z,38.40
2018-01-11T04:03:02.010Z,40.57
2018-01-11T04:05:29.531Z,38.47
2018-01-11T04:07:57.013Z,41.30
2018-01-11T04:10:24.529Z,40.43
2018-01-11T04:12:52.790Z,37.83
2018-01-11T04:15:20.416Z,38.57
2018-01-11T04:17:47.903Z,36.50
2018-01-11T04:20:15.394Z,36.33
2018-01-11T04:22:42.927Z,36.83
2018-01-11T04:25:10.404Z,37.80
2018-01-11T04:27:37.889Z,38.03
2018-01-11T04:30:06.185Z,39.60
2018-01-11T04:32:34.438Z,38.60
2018-01-11T04:35:01.941Z,41.90
2018-01-11T04:37:29.458Z,40.80
2018-01-11T04:39:56.942Z,43.10
2018-01-11T04:42:25.218Z,44.33
2018-01-11T04:44:53.515Z,45.57
2018-01-11T04:47:21.774Z,44.10
2018-01-11T04:49:49.288Z,47.37
2018-01-11T04:52:16.769Z,44.27
2018-01-11T04:54:44.281Z,43.00
2018-01-11T04:57:12.530Z,47.37
2018-01-11T04:59:40.045Z,44.23
2018-01-11T05:02:07.575Z,41.20
2018-01-11T05:04:35.101Z,40.10
2018-01-11T05:07:02.635Z,39.17
2018-01-11T05:09:30.130Z,40.80
2018-01-11T05:11:57.641Z,41.60
2018-01-11T05:14:25.918Z,42.83
2018-01-11T05:16:54.165Z,42.30
2018-01-11T05:19:21.686Z,39.90
2018-01-11T05:21:49.202Z,40.10
2018-01-11T05:24:16.718Z,41.23
2018-01-11T05:26:44.217Z,40.40
2018-01-11T05:29:11.703Z,42.90
2018-01-11T05:31:39.218Z,43.30
2018-01-11T05:34:06.696Z,44.07
2018-01-11T05:36:34.223Z,43.37
2018-01-11T05:39:01.713Z,40.70
2018-01-11T05:41:29.232Z,39.97
2018-01-11T05:43:57.487Z,39.17
2018-01-11T05:46:25.001Z,39.20
2018-01-11T05:48:52.527Z,40.40
2018-01-11T05:51:20.037Z,39.37
2018-01-11T05:53:47.564Z,41.30
2018-01-11T05:56:15.854Z,37.47
2018-01-11T05:58:44.109Z,37.77
2018-01-11T06:01:11.601Z,34.80
2018-01-11T06:03:39.891Z,37.47
2018-01-11T06:06:07.404Z,38.30
2018-01-11T06:08:34.914Z,37.33
2018-01-11T06:11:02.404Z,39.77
2018-01-11T06:13:30.000Z,40.47
2018-01-11T06:15:57.455Z,38.27
2018-01-11T06:18:24.942Z,38.43
2018-01-11T06:20:52.485Z,40.60
2018-01-11T06:23:19.980Z,39.83
2018-01-11T06:25:48.264Z,38.03
2018-01-11T06:28:16.524Z,37.43
2018-01-11T06:30:44.051Z,37.33
2018-01-11T06:33:11.536Z,39.17
2018-01-11T06:35:39.078Z,38.40
2018-01-11T06:38:06.597Z,38.57
2018-01-11T06:40:34.854Z,38.43
2018-01-11T06:43:02.383Z,39.47
2018-01-11T06:45:29.868Z,39.20
2018-01-11T06:47:57.396Z,38.90
2018-01-11T06:50:24.923Z,39.43
2018-01-11T06:52:53.452Z,38.60
2018-01-11T06:55:20.951Z,39.93
2018-01-11T06:57:48.529Z,40.27
2018-01-11T07:00:16.822Z,43.93
2018-01-11T07:02:45.086Z,40.63
2018-01-11T07:05:12.609Z,39.80
2018-01-11T07:07:40.106Z,38.13
2018-01-11T07:10:07.626Z,38.30
2018-01-11T07:12:35.166Z,38.37
2018-01-11T07:15:02.677Z,41.07
2018-01-11T07:17:30.203Z,39.03
2018-01-11T07:19:57.712Z,38.73
2018-01-11T07:22:25.206Z,38.90
2018-01-11T07:24:53.482Z,37.90
2018-01-11T07:27:21.779Z,37.20
2018-01-11T07:29:50.034Z,39.37
2018-01-11T07:32:17.535Z,39.50
2018-01-11T07:34:45.026Z,38.80
2018-01-11T07:37:12.530Z,42.57
2018-01-11T07:39:40.823Z,40.37
2018-01-11T07:42:09.130Z,40.30
2018-01-11T07:44:36.622Z,38.77
2018-01-11T07:47:04.110Z,38.20
2018-01-11T07:49:31.632Z,36.73
2018-01-11T07:51:59.112Z,35.87
2018-01-11T07:54:26.654Z,36.40
2018-01-11T07:56:54.137Z,37.30
2018-01-11T07:59:21.633Z,38.57
2018-01-11T08:01:49.162Z,37.03
2018-01-11T08:04:16.656Z,38.50
2018-01-11T08:06:44.930Z,37.37
2018-01-11T08:09:12.446Z,36.10
2018-01-11T08:11:39.964Z,37.40
2018-01-11T08:14:07.462Z,38.17
2018-01-11T08:16:35.144Z,38.33
2018-01-11T08:19:02.630Z,40.90
2018-01-11T08:21:30.877Z,38.27
2018-01-11T08:23:59.306Z,38.27
2018-01-11T08:26:26.814Z,38.73
2018-01-11T08:28:54.314Z,37.90
2018-01-11T08:31:21.829Z,38.20
2018-01-11T08:33:49.359Z,38.80
2018-01-11T08:36:16.890Z,37.80
2018-01-11T08:38:44.402Z,37.23
2018-01-11T08:41:11.891Z,40.70
2018-01-11T08:43:39.415Z,37.67
2018-01-11T08:46:06.907Z,42.20
2018-01-11T08:48:35.185Z,43.70
2018-01-11T08:51:03.451Z,43.60
2018-01-11T08:53:31.747Z,44.07
2018-01-11T08:55:59.998Z,42.97
2018-01-11T08:58:27.519Z,40.83
2018-01-11T09:00:55.018Z,39.80
2018-01-11T09:03:22.535Z,33.30
2018-01-11T09:05:50.051Z,30.57
2018-01-11T09:08:17.594Z,29.47
2018-01-11T09:10:45.078Z,26.83
2018-01-11T09:13:12.589Z,28.40
2018-01-11T09:15:40.110Z,25.97
2018-01-11T09:18:07.601Z,29.23
2018-01-11T09:20:35.878Z,30.93
2018-01-11T09:23:04.139Z,34.63
2018-01-11T09:25:31.634Z,33.00
2018-01-11T09:27:59.165Z,32.07
2018-01-11T09:30:26.654Z,28.63
2018-01-11T09:32:54.181Z,29.07
2018-01-11T09:35:21.667Z,27.03
2018-01-11T09:37:49.933Z,27.80
2018-01-11T09:40:17.450Z,26.40
2018-01-11T09:42:44.982Z,27.20
2018-01-11T09:45:13.264Z,27.00
2018-01-11T09:47:41.547Z,34.07
2018-01-11T09:50:09.835Z,30.63
2018-01-11T09:52:37.346Z,27.80
2018-01-11T09:55:04.883Z,26.77
2018-01-11T09:57:32.373Z,25.07
2018-01-11T09:59:59.861Z,26.40
2018-01-11T10:02:27.391Z,27.80
2018-01-11T10:04:54.878Z,24.80
2018-01-11T10:07:22.410Z,26.03
2018-01-11T10:09:49.887Z,24.43
2018-01-11T10:12:17.411Z,25.53
2018-01-11T10:14:44.934Z,25.10
2018-01-11T10:17:12.418Z,25.50
2018-01-11T10:19:40.724Z,25.50
2018-01-11T10:22:08.226Z,24.80
2018-01-11T10:24:35.714Z,23.73
2018-01-11T10:27:03.243Z,22.80
2018-01-11T10:29:30.730Z,23.80
2018-01-11T10:31:58.228Z,21.90
2018-01-11T10:34:25.748Z,22.07
2018-01-11T10:36:53.241Z,18.83
2018-01-11T10:39:21.547Z,19.77
2018-01-11T10:41:49.038Z,19.33
2018-01-11T10:44:16.526Z,19.40
2018-01-11T10:46:44.040Z,19.00
2018-01-11T10:49:11.556Z,19.13
2018-01-11T10:51:39.041Z,19.17
2018-01-11T10:54:07.315Z,19.90
2018-01-11T10:56:35.558Z,19.93
2018-01-11T10:59:03.080Z,19.30
2018-01-11T11:01:36.197Z,17.60
2018-01-11T11:04:03.679Z,17.43
2018-01-11T11:06:31.169Z,17.60
2018-01-11T11:08:59.449Z,17.20
2018-01-11T11:11:26.944Z,17.20
2018-01-11T11:13:54.469Z,17.80
2018-01-11T11:16:21.962Z,16.43
2018-01-11T11:18:49.497Z,18.20
2018-01-11T11:21:16.997Z,17.30
2018-01-11T11:23:44.481Z,16.47
2018-01-11T11:26:12.011Z,16.20
2018-01-11T11:28:39.505Z,16.57
2018-01-11T11:31:06.999Z,15.80
2018-01-11T11:33:34.512Z,16.13
2018-01-11T11:36:02.046Z,15.93
2018-01-11T11:38:29.545Z,14.97
2018-01-11T11:40:57.041Z,16.13
2018-01-11T11:43:24.574Z,15.10
2018-01-11T11:45:52.059Z,15.93
2018-01-11T11:48:19.588Z,16.30
2018-01-11T11:50:47.127Z,16.70
2018-01-11T11:53:15.375Z,16.53
2018-01-11T11:55:42.897Z,15.30
2018-01-11T11:58:10.402Z,15.97
2018-01-11T12:00:37.886Z,16.30
2018-01-11T12:03:05.402Z,16.40
2018-01-11T12:05:32.892Z,17.90
2018-01-11T12:08:00.414Z,17.23
2018-01-11T12:10:27.910Z,17.90
2018-01-11T12:12:55.459Z,16.90
2018-01-11T12:15:22.947Z,17.67
2018-01-11T12:17:50.435Z,20.10
2018-01-11T12:20:17.985Z,19.83
2018-01-11T12:22:45.477Z,17.13
2018-01-11T12:25:13.731Z,19.60
2018-01-11T12:27:41.263Z,18.80
2018-01-11T12:30:08.784Z,19.43
2018-01-11T12:32:37.042Z,20.67
2018-01-11T12:35:04.583Z,20.23
2018-01-11T12:37:32.070Z,22.57
2018-01-11T12:39:59.562Z,18.63
2018-01-11T12:42:27.094Z,19.60
2018-01-11T12:44:54.589Z,20.93
2018-01-11T12:47:22.845Z,19.77
2018-01-11T12:49:50.359Z,21.53
2018-01-11T12:52:17.869Z,20.57
2018-01-11T12:54:45.355Z,21.20
2018-01-11T12:57:12.880Z,22.50
2018-01-11T12:59:40.391Z,20.43
2018-01-11T13:02:07.908Z,23.40
2018-01-11T13:04:35.410Z,22.43
2018-01-11T13:07:02.952Z,21.93
2018-01-11T13:09:30.440Z,24.47
2018-01-11T13:11:57.962Z,25.60
2018-01-11T13:14:25.464Z,26.40
2018-01-11T13:16:53.719Z,27.10
2018-01-11T13:19:21.253Z,25.37
2018-01-11T13:21:48.742Z,21.43
2018-01-11T13:24:16.235Z,22.67
2018-01-11T13:26:43.753Z,21.20
2018-01-11T13:29:11.302Z,20.77
2018-01-11T13:31:38.813Z,21.93
2018-01-11T13:34:07.105Z,22.10
2018-01-11T13:36:35.354Z,21.03
2018-01-11T13:39:02.880Z,22.07
2018-01-11T13:41:30.399Z,21.60
2018-01-11T13:43:58.663Z,20.40
2018-01-11T13:46:26.151Z,19.53
2018-01-11T13:48:54.443Z,21.93
2018-01-11T13:51:21.935Z,19.90
2018-01-11T13:53:49.454Z,20.40
2018-01-11T13:56:17.739Z,20.50
2018-01-11T13:58:46.034Z,19.87
2018-01-11T14:01:13.523Z,20.40
2018-01-11T14:03:41.029Z,20.23
2018-01-11T14:06:08.562Z,20.20
2018-01-11T14:08:36.046Z,20.97
2018-01-11T14:11:03.528Z,23.13
2018-01-11T14:13:31.816Z,21.00
2018-01-11T14:16:00.122Z,20.47
2018-01-11T14:18:27.632Z,23.33
2018-01-11T14:20:55.167Z,23.30
2018-01-11T14:23:22.656Z,25.10
2018-01-11T14:25:50.979Z,24.87
2018-01-11T14:28:18.472Z,25.07
2018-01-11T14:30:45.971Z,25.47
2018-01-11T14:33:13.493Z,25.30
2018-01-11T14:35:41.017Z,26.47
2018-01-11T14:38:09.292Z,27.37
2018-01-11T14:40:37.582Z,27.13
2018-01-11T14:43:05.847Z,26.30
2018-01-11T14:45:33.372Z,27.67
2018-01-11T14:48:00.868Z,32.03
2018-01-11T14:50:28.486Z,41.70
2018-01-11T14:52:55.984Z,84.73
2018-01-11T14:55:23.539Z,42.20
2018-01-11T14:57:51.023Z,36.23
2018-01-11T15:00:18.503Z,39.73
2018-01-11T15:02:46.789Z,91.07
2018-01-11T15:05:15.026Z,66.87
2018-01-11T15:07:42.566Z,49.77
2018-01-11T15:10:10.106Z,42.60
2018-01-11T15:12:37.606Z,44.90
2018-01-11T15:15:05.129Z,42.27
2018-01-11T15:17:32.630Z,41.87
2018-01-11T15:20:00.150Z,43.13
2018-01-11T15:22:28.409Z,46.97
2018-01-11T15:24:55.910Z,42.83
2018-01-11T15:27:23.433Z,46.67
2018-01-11T17:11:58.344Z,51.83
2018-01-11T17:14:25.855Z,49.37
2018-01-11T17:16:53.362Z,51.97
2018-01-11T17:19:20.889Z,50.30
2018-01-11T17:21:48.378Z,49.20
2018-01-11T17:24:16.646Z,49.83
2018-01-11T17:26:44.911Z,54.70
2018-01-11T17:29:12.444Z,56.13
2018-01-11T17:31:39.974Z,56.70
2018-01-11T17:34:07.470Z,58.63
2018-01-11T17:36:34.969Z,58.67
2018-01-11T17:39:02.498Z,56.20
2018-01-11T17:41:30.039Z,58.53
2018-01-11T17:43:57.550Z,58.10
2018-01-11T17:46:25.044Z,57.70
2018-01-11T17:48:53.344Z,57.07
2018-01-11T17:51:20.870Z,55.83
2018-01-11T17:53:48.364Z,58.30
2018-01-11T17:56:15.877Z,56.33
2018-01-11T17:58:43.358Z,58.60
2018-01-11T18:01:10.974Z,58.23
2018-01-11T18:03:38.485Z,57.97
2018-01-11T18:06:06.004Z,56.80
2018-01-11T18:08:33.502Z,57.60
2018-01-11T18:11:01.031Z,55.70
2018-01-11T18:13:28.513Z,59.43
2018-01-11T18:15:56.026Z,55.27
2018-01-11T18:18:24.290Z,54.83
2018-01-11T18:20:51.849Z,54.63
2018-01-11T18:23:19.386Z,55.97
2018-01-11T18:25:46.873Z,57.80
2018-01-11T18:28:14.374Z,55.63
2018-01-11T18:30:41.914Z,55.77
2018-01-11T18:33:10.226Z,54.40
2018-01-11T18:35:37.718Z,54.60
2018-01-11T18:38:05.248Z,52.30
2018-01-11T18:40:32.734Z,53.40
2018-01-11T18:43:00.257Z,52.20
2018-01-11T18:45:27.779Z,54.57
2018-01-11T18:47:55.253Z,55.43
2018-01-11T18:50:22.775Z,56.30
2018-01-11T18:52:50.462Z,56.53
2018-01-11T18:55:17.981Z,56.17
2018-01-11T18:57:46.275Z,59.60
2018-01-11T19:00:13.799Z,57.13
2018-01-11T19:02:41.337Z,54.33
2018-01-11T19:05:08.911Z,56.70
2018-01-11T19:07:36.412Z,57.10
2018-01-11T19:10:04.676Z,56.77
2018-01-11T19:12:32.224Z,57.63
2018-01-11T19:14:59.730Z,54.60
2018-01-11T19:17:27.252Z,55.07
2018-01-11T19:19:54.788Z,55.70
2018-01-11T19:22:22.313Z,56.27
2018-01-11T19:24:50.604Z,53.83
2018-01-11T19:27:18.109Z,52.17
2018-01-11T19:29:45.596Z,53.70
2018-01-11T19:32:13.902Z,49.67
2018-01-11T19:34:42.196Z,49.87
2018-01-11T19:37:09.697Z,52.10
2018-01-11T19:39:37.210Z,51.93
2018-01-11T19:42:04.697Z,48.80
2018-01-11T19:44:32.235Z,47.43
2018-01-11T19:47:00.483Z,45.47
2018-01-11T19:49:27.968Z,42.23
2018-01-11T19:51:56.265Z,43.20
2018-01-11T19:54:23.754Z,43.37
2018-01-11T19:56:51.251Z,43.03
2018-01-11T19:59:18.790Z,42.33
2018-01-11T20:01:46.307Z,42.70
2018-01-11T20:04:14.692Z,45.57
2018-01-11T20:06:42.969Z,40.90
2018-01-11T20:09:11.280Z,43.00
2018-01-11T20:11:38.778Z,44.20
2018-01-11T20:14:06.381Z,41.87
2018-01-11T20:16:34.720Z,42.63
2018-01-11T20:19:02.208Z,47.80
2018-01-11T20:21:29.742Z,43.20
2018-01-11T20:23:57.231Z,41.70
2018-01-11T20:26:24.798Z,41.77
2018-01-11T20:28:52.294Z,46.43
2018-01-11T20:31:19.783Z,40.27
2018-01-11T20:33:47.326Z,39.70
2018-01-11T20:36:14.828Z,40.40
2018-01-11T20:38:42.539Z,50.17
2018-01-11T20:41:10.793Z,41.60
2018-01-11T20:43:38.291Z,38.33
2018-01-11T20:46:05.809Z,40.90
2018-01-11T20:48:33.310Z,42.50
2018-01-11T20:51:01.599Z,41.50
2018-01-11T20:53:29.143Z,41.20
2018-01-11T20:55:56.649Z,36.43
2018-01-11T20:58:24.139Z,38.43
2018-01-11T21:00:51.686Z,39.27
2018-01-11T21:03:19.185Z,37.70
2018-01-11T21:05:46.675Z,37.70
2018-01-11T21:08:14.968Z,41.03
2018-01-11T21:10:42.481Z,55.63
2018-01-11T21:13:10.022Z,43.13
2018-01-11T21:15:37.510Z,41.87
2018-01-11T21:18:05.022Z,36.67
2018-01-11T21:20:32.546Z,37.23
2018-01-11T21:23:00.038Z,37.83
2018-01-11T21:25:27.565Z,36.90
2018-01-11T21:27:55.085Z,35.83
2018-01-11T21:30:22.590Z,37.40
2018-01-11T21:32:50.109Z,37.27
2018-01-11T21:35:17.606Z,35.33
2018-01-11T21:37:45.093Z,34.47
2018-01-11T21:40:12.642Z,34.83
2018-01-11T21:42:40.137Z,36.40
2018-01-11T21:45:08.421Z,36.50
2018-01-11T21:47:36.712Z,36.77
2018-01-11T21:50:04.241Z,36.40
2018-01-11T21:52:31.782Z,34.97
2018-01-11T21:54:59.307Z,37.33
2018-01-11T21:57:26.816Z,37.53
2018-01-11T21:59:54.325Z,37.50
2018-01-11T22:02:21.818Z,37.70
2018-01-11T22:04:49.347Z,36.17
2018-01-11T22:07:17.605Z,35.80
2018-01-11T22:09:45.104Z,37.20
2018-01-11T22:12:12.617Z,37.87
2018-01-11T22:14:40.118Z,37.10
2018-01-11T22:17:08.423Z,38.43
2018-01-11T22:19:35.913Z,37.57
2018-01-11T22:22:03.405Z,36.83
2018-01-11T22:24:30.935Z,35.57
2018-01-11T22:26:58.434Z,33.97
2018-01-11T22:29:26.716Z,36.67
2018-01-11T22:31:55.008Z,35.00
2018-01-11T22:34:23.262Z,34.90
2018-01-11T22:36:50.799Z,34.33
2018-01-11T22:39:18.298Z,34.70
2018-01-11T22:41:45.785Z,32.03
2018-01-11T22:44:13.343Z,31.53
2018-01-11T22:46:41.602Z,33.40
2018-01-11T22:49:09.090Z,31.73
2018-01-11T22:51:37.373Z,32.90
2018-01-11T22:54:04.866Z,33.00
2018-01-11T22:56:32.431Z,32.33
2018-01-11T22:58:59.940Z,30.50
2018-01-11T23:01:27.437Z,32.63
2018-01-11T23:03:54.959Z,32.50
2018-01-11T23:06:22.483Z,32.33
2018-01-11T23:08:49.966Z,29.37
2018-01-11T23:11:23.274Z,30.97
2018-01-11T23:13:50.786Z,32.37
2018-01-11T23:16:18.278Z,31.20
2018-01-11T23:18:45.794Z,32.47
2018-01-11T23:21:14.075Z,32.97
2018-01-11T23:23:42.337Z,31.37
2018-01-11T23:26:09.894Z,32.73
2018-01-11T23:28:37.426Z,31.80
2018-01-11T23:31:05.033Z,31.73
2018-01-11T23:33:32.558Z,32.43
2018-01-11T23:36:00.062Z,30.77
2018-01-11T23:38:27.584Z,31.13
2018-01-11T23:40:55.068Z,33.93
2018-01-11T23:43:22.591Z,29.57
2018-01-11T23:45:50.086Z,33.17
2018-01-11T23:48:17.785Z,33.57
2018-01-11T23:50:46.046Z,35.07
2018-01-11T23:53:13.529Z,35.90
2018-01-11T23:55:41.833Z,33.60
2018-01-11T23:58:09.355Z,34.23
